Thalassa — FNFP — position and weather

sailwx.info

Track history (hours):
 
Tides and Currents Weather Stations Pressure Air Temp Water Temp Dewpoint Dewpoint Depression Visibility Wind Speed Wind Dir Waves Ship Positions

Oceanographic research ship Thalassa (France & Spain)

Detailed information on ship capabilities available from University of Delaware's Ocean Information Center.

Last reported at 2016-Sep-27 23:09 UTC. Time now 2016-Sep-28 06:56 UTC.
Position N 50°19' E 001°14'.

Length 74 m; beam 15 m.

Type: Ship. MMSI: 227297000.

Date/timePositionNaut miles runAvg speedWind from/ knotsBaromVisibWave heightAir tempDewpointWater temp
2016-Sep-27 23:09N 50°19' E 001°14'24 2.4
2016-Sep-27 13:07N 50°41' E 001°30'  
2016-Sep-25 07:20N 50°53' E 001°07'5 1.6
2016-Sep-25 04:33N 50°58' E 001°05'4 1.0
2016-Sep-25 00:32N 50°59' E 001°11'6 3.2
2016-Sep-24 22:33N 51°03' E 001°19'16 5.4
2016-Sep-24 19:33N 50°60' E 001°44'3 3.0
2016-Sep-24 18:33N 50°59' E 001°40'7 6.9
2016-Sep-24 17:33N 51°01' E 001°29'1110.6
2016-Sep-24 16:34N 50°52' E 001°20'0 0.1
2016-Sep-24 14:33N 50°52' E 001°21'1 0.3
2016-Sep-24 12:33N 50°51' E 001°20'12 6.0
2016-Sep-24 10:33N 50°56' E 001°38'0 0.4
2016-Sep-24 09:33N 50°55' E 001°37'12 1.9
2016-Sep-24 03:29N 50°44' E 001°34'0 0.0
2016-Sep-23 04:20N 50°44' E 001°34'0 0.0
2016-Sep-23 02:17N 50°44' E 001°34'65 3.0
2016-Sep-22 04:34N 50°18' E 000°01'1111.2
2016-Sep-22 03:33N 50°15' W 000°16'11413.9
2016-Sep-21 19:20N 49°39' W 003°04'10110.3
2016-Sep-21 09:33N 48°27' W 004°50'8 8.4
2016-Sep-21 08:33N 48°19' W 004°46'12 4.0
2016-Sep-21 05:33N 48°23' W 004°29'0 0.0
2016-Sep-21 03:33N 48°23' W 004°29'0 0.0
2016-Sep-21 02:33N 48°23' W 004°29'0 0.0
2016-Sep-20 17:33N 48°23' W 004°29'0 0.0
2016-Sep-20 14:33N 48°23' W 004°29'0 0.0
2016-Sep-20 13:33N 48°23' W 004°29'0 0.0
2016-Sep-20 10:33N 48°23' W 004°29'0 0.0
2016-Sep-20 08:33N 48°23' W 004°29'0 0.0
2016-Sep-20 07:33N 48°23' W 004°29'0 0.0
2016-Sep-20 06:33N 48°23' W 004°29'0 0.0
2016-Sep-20 02:33N 48°23' W 004°29'0 0.0
2016-Sep-19 23:33N 48°23' W 004°29'0 0.0
2016-Sep-19 19:33N 48°23' W 004°29'0 0.0
2016-Sep-19 18:33N 48°23' W 004°29'0 0.0
2016-Sep-19 16:30N 48°23' W 004°29'0 0.0
2016-Sep-19 14:33N 48°23' W 004°29'0 0.0
2016-Sep-19 13:32N 48°23' W 004°29'0 0.0
2016-Sep-19 12:33N 48°23' W 004°29'0 0.0
2016-Sep-19 11:33N 48°23' W 004°29'0 0.0
2016-Sep-19 09:33N 48°23' W 004°29'0 0.0
2016-Sep-19 07:32N 48°23' W 004°29'0 0.0
2016-Sep-19 06:32N 48°23' W 004°29'0 0.0
2016-Sep-19 03:34N 48°23' W 004°29'0 0.0
2016-Sep-19 02:33N 48°23' W 004°29'0 0.0
2016-Sep-19 00:34N 48°23' W 004°29'0 0.0
2016-Sep-18 19:33N 48°23' W 004°29'0 0.0
2016-Sep-18 15:34N 48°23' W 004°29'0 0.0
2016-Sep-18 14:34N 48°23' W 004°29'0 0.0
2016-Sep-18 10:33N 48°23' W 004°29'0 0.0
2016-Sep-18 09:33N 48°23' W 004°29'0 0.0
2016-Sep-18 02:33N 48°23' W 004°29'0 0.0
2016-Sep-18 01:34N 48°23' W 004°29'0 0.0
2016-Sep-18 00:33N 48°23' W 004°29'  
Track history (hours):
 
Tides and Currents Weather Stations Pressure Air Temp Water Temp Dewpoint Dewpoint Depression Visibility Wind Speed Wind Dir Waves Ship Positions

Oceanographic research ship Thalassa (France & Spain)

Detailed information on ship capabilities available from University of Delaware's Ocean Information Center.

Last reported at 2016-Sep-27 23:09 UTC. Time now 2016-Sep-28 06:56 UTC.
Position N 50°19' E 001°14'.

Length 74 m; beam 15 m.

Type: Ship. MMSI: 227297000.

Date/timePositionNaut miles runAvg speedWind from/ knotsBaromVisibWave heightAir tempDewpointWater temp
2016-Sep-27 23:09N 50°19' E 001°14'24 2.4
2016-Sep-27 13:07N 50°41' E 001°30'  
2016-Sep-25 07:20N 50°53' E 001°07'5 1.6
2016-Sep-25 04:33N 50°58' E 001°05'4 1.0
2016-Sep-25 00:32N 50°59' E 001°11'6 3.2
2016-Sep-24 22:33N 51°03' E 001°19'16 5.4
2016-Sep-24 19:33N 50°60' E 001°44'3 3.0
2016-Sep-24 18:33N 50°59' E 001°40'7 6.9
2016-Sep-24 17:33N 51°01' E 001°29'1110.6
2016-Sep-24 16:34N 50°52' E 001°20'0 0.1
2016-Sep-24 14:33N 50°52' E 001°21'1 0.3
2016-Sep-24 12:33N 50°51' E 001°20'12 6.0
2016-Sep-24 10:33N 50°56' E 001°38'0 0.4
2016-Sep-24 09:33N 50°55' E 001°37'12 1.9
2016-Sep-24 03:29N 50°44' E 001°34'0 0.0
2016-Sep-23 04:20N 50°44' E 001°34'0 0.0
2016-Sep-23 02:17N 50°44' E 001°34'65 3.0
2016-Sep-22 04:34N 50°18' E 000°01'1111.2
2016-Sep-22 03:33N 50°15' W 000°16'11413.9
2016-Sep-21 19:20N 49°39' W 003°04'10110.3
2016-Sep-21 09:33N 48°27' W 004°50'8 8.4
2016-Sep-21 08:33N 48°19' W 004°46'12 4.0
2016-Sep-21 05:33N 48°23' W 004°29'0 0.0
2016-Sep-21 03:33N 48°23' W 004°29'0 0.0
2016-Sep-21 02:33N 48°23' W 004°29'0 0.0
2016-Sep-20 17:33N 48°23' W 004°29'0 0.0
2016-Sep-20 14:33N 48°23' W 004°29'0 0.0
2016-Sep-20 13:33N 48°23' W 004°29'0 0.0
2016-Sep-20 10:33N 48°23' W 004°29'0 0.0
2016-Sep-20 08:33N 48°23' W 004°29'0 0.0
2016-Sep-20 07:33N 48°23' W 004°29'0 0.0
2016-Sep-20 06:33N 48°23' W 004°29'0 0.0
2016-Sep-20 02:33N 48°23' W 004°29'0 0.0
2016-Sep-19 23:33N 48°23' W 004°29'0 0.0
2016-Sep-19 19:33N 48°23' W 004°29'0 0.0
2016-Sep-19 18:33N 48°23' W 004°29'0 0.0
2016-Sep-19 16:30N 48°23' W 004°29'0 0.0
2016-Sep-19 14:33N 48°23' W 004°29'0 0.0
2016-Sep-19 13:32N 48°23' W 004°29'0 0.0
2016-Sep-19 12:33N 48°23' W 004°29'0 0.0
2016-Sep-19 11:33N 48°23' W 004°29'0 0.0
2016-Sep-19 09:33N 48°23' W 004°29'0 0.0
2016-Sep-19 07:32N 48°23' W 004°29'0 0.0
2016-Sep-19 06:32N 48°23' W 004°29'0 0.0
2016-Sep-19 03:34N 48°23' W 004°29'0 0.0
2016-Sep-19 02:33N 48°23' W 004°29'0 0.0
2016-Sep-19 00:34N 48°23' W 004°29'0 0.0
2016-Sep-18 19:33N 48°23' W 004°29'0 0.0
2016-Sep-18 15:34N 48°23' W 004°29'0 0.0
2016-Sep-18 14:34N 48°23' W 004°29'0 0.0
2016-Sep-18 10:33N 48°23' W 004°29'0 0.0
2016-Sep-18 09:33N 48°23' W 004°29'0 0.0
2016-Sep-18 02:33N 48°23' W 004°29'0 0.0
2016-Sep-18 01:34N 48°23' W 004°29'0 0.0
2016-Sep-18 00:33N 48°23' W 004°29'  

Dump ship's entire track history